Terminal Aerodrome Forecast
Issued by NWS Twin Cities, MN

Home | Current Version | Previous Version | Text Only | Print | Product List | Glossary Off
Versions: 1 2 3 4 5 6 7 8 9 10 11 12 13 14 15 16

140
FTUS43 KMPX 221132
TAFEAU
TAF
KEAU 221132Z 2212/2312 VRB03KT P6SM SCT040
     FM221500 36004KT P6SM -SHRA SCT050 BKN080
     FM221700 36005KT 6SM -RA VCTS OVC050CB
      TEMPO 2218/2222 3SM TSRA OVC030CB
     FM230000 33004KT P6SM -SHRA OVC040
     FM230300 VRB03KT P6SM BKN080=

USA.gov is the U.S. government's official web portal to all federal, state and local government web resources and services.